sensor_id;sensor_type;location;lat;lon;timestamp;temperature;humidity
10536;DHT22;5316;49.538;8.352;2022-11-20T00:02:17;3.40;99.90
10536;DHT22;5316;49.538;8.352;2022-11-20T00:04:44;3.40;99.90
10536;DHT22;5316;49.538;8.352;2022-11-20T00:07:11;3.40;99.90
10536;DHT22;5316;49.538;8.352;2022-11-20T00:09:38;3.40;99.90
10536;DHT22;5316;49.538;8.352;2022-11-20T00:12:04;3.40;99.90
10536;DHT22;5316;49.538;8.352;2022-11-20T00:14:33;3.40;99.90
10536;DHT22;5316;49.538;8.352;2022-11-20T00:16:59;3.40;99.90
10536;DHT22;5316;49.538;8.352;2022-11-20T00:19:26;3.40;99.90
10536;DHT22;5316;49.538;8.352;2022-11-20T00:21:53;3.40;99.90
10536;DHT22;5316;49.538;8.352;2022-11-20T00:24:21;3.40;99.90
10536;DHT22;5316;49.538;8.352;2022-11-20T00:26:47;3.30;99.90
10536;DHT22;5316;49.538;8.352;2022-11-20T00:29:14;3.40;99.90
10536;DHT22;5316;49.538;8.352;2022-11-20T00:31:43;3.40;99.90
10536;DHT22;5316;49.538;8.352;2022-11-20T00:34:10;3.40;99.90
10536;DHT22;5316;49.538;8.352;2022-11-20T00:36:37;3.40;99.90
10536;DHT22;5316;49.538;8.352;2022-11-20T00:39:04;3.40;99.90
10536;DHT22;5316;49.538;8.352;2022-11-20T00:41:30;3.40;99.90
10536;DHT22;5316;49.538;8.352;2022-11-20T00:43:57;3.40;99.90
10536;DHT22;5316;49.538;8.352;2022-11-20T00:46:25;3.40;99.90
10536;DHT22;5316;49.538;8.352;2022-11-20T00:48:54;3.40;99.90
10536;DHT22;5316;49.538;8.352;2022-11-20T00:51:22;3.30;99.90
10536;DHT22;5316;49.538;8.352;2022-11-20T00:53:49;3.30;99.90
10536;DHT22;5316;49.538;8.352;2022-11-20T00:56:17;3.30;99.90
10536;DHT22;5316;49.538;8.352;2022-11-20T00:58:47;3.20;99.90
10536;DHT22;5316;49.538;8.352;2022-11-20T01:01:15;3.20;99.90
10536;DHT22;5316;49.538;8.352;2022-11-20T01:03:43;3.20;99.90
10536;DHT22;5316;49.538;8.352;2022-11-20T01:06:15;3.20;99.90
10536;DHT22;5316;49.538;8.352;2022-11-20T01:08:42;3.30;99.90
10536;DHT22;5316;49.538;8.352;2022-11-20T01:11:12;3.30;99.90
10536;DHT22;5316;49.538;8.352;2022-11-20T01:13:40;3.20;99.90
10536;DHT22;5316;49.538;8.352;2022-11-20T01:16:08;3.30;99.90
10536;DHT22;5316;49.538;8.352;2022-11-20T01:18:36;3.30;99.90
10536;DHT22;5316;49.538;8.352;2022-11-20T01:21:05;3.40;99.90
10536;DHT22;5316;49.538;8.352;2022-11-20T01:23:35;3.30;99.90
10536;DHT22;5316;49.538;8.352;2022-11-20T01:26:03;3.40;99.90
10536;DHT22;5316;49.538;8.352;2022-11-20T01:28:31;3.40;99.90
10536;DHT22;5316;49.538;8.352;2022-11-20T01:30:58;3.40;99.90
10536;DHT22;5316;49.538;8.352;2022-11-20T01:33:25;3.40;99.90
10536;DHT22;5316;49.538;8.352;2022-11-20T01:35:51;3.40;99.90
10536;DHT22;5316;49.538;8.352;2022-11-20T01:38:18;3.40;99.90
10536;DHT22;5316;49.538;8.352;2022-11-20T01:40:55;3.40;99.90
10536;DHT22;5316;49.538;8.352;2022-11-20T01:43:22;3.40;99.90
10536;DHT22;5316;49.538;8.352;2022-11-20T01:45:56;3.40;99.90
10536;DHT22;5316;49.538;8.352;2022-11-20T01:48:26;3.40;99.90
10536;DHT22;5316;49.538;8.352;2022-11-20T01:50:55;3.50;99.90
10536;DHT22;5316;49.538;8.352;2022-11-20T01:53:27;3.40;99.90
10536;DHT22;5316;49.538;8.352;2022-11-20T01:55:57;3.50;99.90
10536;DHT22;5316;49.538;8.352;2022-11-20T01:58:28;3.50;99.90
10536;DHT22;5316;49.538;8.352;2022-11-20T02:00:56;3.50;99.90
10536;DHT22;5316;49.538;8.352;2022-11-20T02:03:23;3.60;99.90
10536;DHT22;5316;49.538;8.352;2022-11-20T02:05:53;3.60;99.90
10536;DHT22;5316;49.538;8.352;2022-11-20T02:08:22;3.60;99.90
10536;DHT22;5316;49.538;8.352;2022-11-20T02:10:49;3.60;99.90
10536;DHT22;5316;49.538;8.352;2022-11-20T02:13:17;3.60;99.90
10536;DHT22;5316;49.538;8.352;2022-11-20T02:16:02;3.60;99.90
10536;DHT22;5316;49.538;8.352;2022-11-20T02:18:30;3.70;99.90
10536;DHT22;5316;49.538;8.352;2022-11-20T02:21:00;3.70;99.90
10536;DHT22;5316;49.538;8.352;2022-11-20T02:23:34;3.70;99.90
10536;DHT22;5316;49.538;8.352;2022-11-20T02:26:06;3.70;99.90
10536;DHT22;5316;49.538;8.352;2022-11-20T02:28:35;3.80;99.90
10536;DHT22;5316;49.538;8.352;2022-11-20T02:31:03;3.80;99.90
10536;DHT22;5316;49.538;8.352;2022-11-20T02:33:29;3.80;99.90
10536;DHT22;5316;49.538;8.352;2022-11-20T02:35:56;3.80;99.90
10536;DHT22;5316;49.538;8.352;2022-11-20T02:38:23;3.80;99.90
10536;DHT22;5316;49.538;8.352;2022-11-20T02:40:49;3.80;99.90
10536;DHT22;5316;49.538;8.352;2022-11-20T02:43:18;3.80;99.90
10536;DHT22;5316;49.538;8.352;2022-11-20T02:45:44;3.80;99.90
10536;DHT22;5316;49.538;8.352;2022-11-20T02:48:11;3.80;99.90
10536;DHT22;5316;49.538;8.352;2022-11-20T02:50:38;3.90;99.90
10536;DHT22;5316;49.538;8.352;2022-11-20T02:53:06;3.90;99.90
10536;DHT22;5316;49.538;8.352;2022-11-20T02:55:33;4.00;99.90
10536;DHT22;5316;49.538;8.352;2022-11-20T02:57:59;3.90;99.90
10536;DHT22;5316;49.538;8.352;2022-11-20T03:00:27;3.90;99.90
10536;DHT22;5316;49.538;8.352;2022-11-20T03:02:54;3.90;99.90
10536;DHT22;5316;49.538;8.352;2022-11-20T03:05:21;3.90;99.90
10536;DHT22;5316;49.538;8.352;2022-11-20T03:07:48;4.00;99.90
10536;DHT22;5316;49.538;8.352;2022-11-20T03:10:15;3.90;99.90
10536;DHT22;5316;49.538;8.352;2022-11-20T03:12:45;4.00;99.90
10536;DHT22;5316;49.538;8.352;2022-11-20T03:15:12;3.90;99.90
10536;DHT22;5316;49.538;8.352;2022-11-20T03:17:40;3.90;99.90
10536;DHT22;5316;49.538;8.352;2022-11-20T03:20:08;3.90;99.90
10536;DHT22;5316;49.538;8.352;2022-11-20T03:22:35;3.90;99.90
10536;DHT22;5316;49.538;8.352;2022-11-20T03:25:02;3.80;99.90
10536;DHT22;5316;49.538;8.352;2022-11-20T03:27:32;3.80;99.90
10536;DHT22;5316;49.538;8.352;2022-11-20T03:29:59;3.80;99.90
10536;DHT22;5316;49.538;8.352;2022-11-20T03:32:26;3.70;99.90
10536;DHT22;5316;49.538;8.352;2022-11-20T03:34:54;3.70;99.90
10536;DHT22;5316;49.538;8.352;2022-11-20T03:37:21;3.70;99.90
10536;DHT22;5316;49.538;8.352;2022-11-20T03:39:48;3.70;99.90
10536;DHT22;5316;49.538;8.352;2022-11-20T03:42:14;3.80;99.90
10536;DHT22;5316;49.538;8.352;2022-11-20T03:44:55;3.80;99.90
10536;DHT22;5316;49.538;8.352;2022-11-20T03:47:22;3.90;99.90
10536;DHT22;5316;49.538;8.352;2022-11-20T03:49:49;3.90;99.90
10536;DHT22;5316;49.538;8.352;2022-11-20T03:52:17;3.90;99.90
10536;DHT22;5316;49.538;8.352;2022-11-20T03:54:44;3.90;99.90
10536;DHT22;5316;49.538;8.352;2022-11-20T03:57:11;3.90;99.90
10536;DHT22;5316;49.538;8.352;2022-11-20T03:59:37;3.90;99.90
10536;DHT22;5316;49.538;8.352;2022-11-20T04:02:04;4.00;99.90
10536;DHT22;5316;49.538;8.352;2022-11-20T04:04:31;3.90;99.90
10536;DHT22;5316;49.538;8.352;2022-11-20T04:06:57;3.90;99.90
10536;DHT22;5316;49.538;8.352;2022-11-20T04:09:25;3.90;99.90
10536;DHT22;5316;49.538;8.352;2022-11-20T04:11:52;3.90;99.90
10536;DHT22;5316;49.538;8.352;2022-11-20T04:14:19;3.90;99.90
10536;DHT22;5316;49.538;8.352;2022-11-20T04:16:45;3.90;99.90
10536;DHT22;5316;49.538;8.352;2022-11-20T04:19:15;3.80;99.90
10536;DHT22;5316;49.538;8.352;2022-11-20T04:21:42;3.80;99.90
10536;DHT22;5316;49.538;8.352;2022-11-20T04:24:09;3.80;99.90
10536;DHT22;5316;49.538;8.352;2022-11-20T04:26:38;3.80;99.90
10536;DHT22;5316;49.538;8.352;2022-11-20T04:29:05;3.80;99.90
10536;DHT22;5316;49.538;8.352;2022-11-20T04:31:33;3.80;99.90
10536;DHT22;5316;49.538;8.352;2022-11-20T04:34:01;3.80;99.90
10536;DHT22;5316;49.538;8.352;2022-11-20T04:36:29;3.90;99.90
10536;DHT22;5316;49.538;8.352;2022-11-20T04:38:57;3.90;99.90
10536;DHT22;5316;49.538;8.352;2022-11-20T04:41:26;3.90;99.90
10536;DHT22;5316;49.538;8.352;2022-11-20T04:43:55;3.90;99.90
10536;DHT22;5316;49.538;8.352;2022-11-20T04:46:25;3.90;99.90
10536;DHT22;5316;49.538;8.352;2022-11-20T04:48:52;3.90;99.90
10536;DHT22;5316;49.538;8.352;2022-11-20T04:51:19;3.90;99.90
10536;DHT22;5316;49.538;8.352;2022-11-20T04:53:46;3.90;99.90
10536;DHT22;5316;49.538;8.352;2022-11-20T04:56:13;4.00;99.90
10536;DHT22;5316;49.538;8.352;2022-11-20T04:58:40;4.00;99.90
10536;DHT22;5316;49.538;8.352;2022-11-20T05:01:10;4.00;99.90
10536;DHT22;5316;49.538;8.352;2022-11-20T05:03:37;4.00;99.90
10536;DHT22;5316;49.538;8.352;2022-11-20T05:06:06;4.00;99.90
10536;DHT22;5316;49.538;8.352;2022-11-20T05:08:33;4.00;99.90
10536;DHT22;5316;49.538;8.352;2022-11-20T05:11:01;4.00;99.90
10536;DHT22;5316;49.538;8.352;2022-11-20T05:13:28;4.00;99.90
10536;DHT22;5316;49.538;8.352;2022-11-20T05:15:55;4.00;99.90
10536;DHT22;5316;49.538;8.352;2022-11-20T05:18:23;4.10;99.90
10536;DHT22;5316;49.538;8.352;2022-11-20T05:20:55;4.00;99.90
10536;DHT22;5316;49.538;8.352;2022-11-20T05:23:22;4.00;99.90
10536;DHT22;5316;49.538;8.352;2022-11-20T05:25:52;4.00;99.90
10536;DHT22;5316;49.538;8.352;2022-11-20T05:28:19;4.10;99.90
10536;DHT22;5316;49.538;8.352;2022-11-20T05:30:46;4.00;99.90
10536;DHT22;5316;49.538;8.352;2022-11-20T05:33:12;4.10;99.90
10536;DHT22;5316;49.538;8.352;2022-11-20T05:35:41;4.10;99.90
10536;DHT22;5316;49.538;8.352;2022-11-20T05:38:07;4.10;99.90
10536;DHT22;5316;49.538;8.352;2022-11-20T05:40:34;4.00;99.90
10536;DHT22;5316;49.538;8.352;2022-11-20T05:43:01;4.10;99.90
10536;DHT22;5316;49.538;8.352;2022-11-20T05:45:28;4.00;99.90
10536;DHT22;5316;49.538;8.352;2022-11-20T05:47:58;4.10;99.90
10536;DHT22;5316;49.538;8.352;2022-11-20T05:50:25;4.00;99.90
10536;DHT22;5316;49.538;8.352;2022-11-20T05:52:53;4.00;99.90
10536;DHT22;5316;49.538;8.352;2022-11-20T05:55:19;3.90;99.90
10536;DHT22;5316;49.538;8.352;2022-11-20T05:57:46;3.90;99.90
10536;DHT22;5316;49.538;8.352;2022-11-20T06:00:14;3.90;99.90
10536;DHT22;5316;49.538;8.352;2022-11-20T06:02:40;4.00;99.90
10536;DHT22;5316;49.538;8.352;2022-11-20T06:05:09;4.00;99.90
10536;DHT22;5316;49.538;8.352;2022-11-20T06:07:35;4.00;99.90
10536;DHT22;5316;49.538;8.352;2022-11-20T06:10:04;4.00;99.90
10536;DHT22;5316;49.538;8.352;2022-11-20T06:12:31;4.00;99.90
10536;DHT22;5316;49.538;8.352;2022-11-20T06:14:58;4.00;99.90
10536;DHT22;5316;49.538;8.352;2022-11-20T06:17:24;4.10;99.90
10536;DHT22;5316;49.538;8.352;2022-11-20T06:19:51;4.10;99.90
10536;DHT22;5316;49.538;8.352;2022-11-20T06:22:18;4.10;99.90
10536;DHT22;5316;49.538;8.352;2022-11-20T06:24:44;4.10;99.90
10536;DHT22;5316;49.538;8.352;2022-11-20T06:27:13;4.10;99.90
10536;DHT22;5316;49.538;8.352;2022-11-20T06:29:39;4.10;99.90
10536;DHT22;5316;49.538;8.352;2022-11-20T06:32:06;4.10;99.90
10536;DHT22;5316;49.538;8.352;2022-11-20T06:34:33;4.10;99.90
10536;DHT22;5316;49.538;8.352;2022-11-20T06:36:59;4.10;99.90
10536;DHT22;5316;49.538;8.352;2022-11-20T06:39:26;4.00;99.90
10536;DHT22;5316;49.538;8.352;2022-11-20T06:41:53;4.10;99.90
10536;DHT22;5316;49.538;8.352;2022-11-20T06:44:21;4.10;99.90
10536;DHT22;5316;49.538;8.352;2022-11-20T06:46:48;4.10;99.90
10536;DHT22;5316;49.538;8.352;2022-11-20T06:49:14;4.10;99.90
10536;DHT22;5316;49.538;8.352;2022-11-20T06:51:41;4.10;99.90
10536;DHT22;5316;49.538;8.352;2022-11-20T06:54:08;4.10;99.90
10536;DHT22;5316;49.538;8.352;2022-11-20T06:56:35;4.10;99.90
10536;DHT22;5316;49.538;8.352;2022-11-20T06:59:04;4.10;99.90
10536;DHT22;5316;49.538;8.352;2022-11-20T07:01:32;4.10;99.90
10536;DHT22;5316;49.538;8.352;2022-11-20T07:04:00;4.10;99.90
10536;DHT22;5316;49.538;8.352;2022-11-20T07:06:27;4.10;99.90
10536;DHT22;5316;49.538;8.352;2022-11-20T07:08:54;4.10;99.90
10536;DHT22;5316;49.538;8.352;2022-11-20T07:11:20;4.10;99.90
10536;DHT22;5316;49.538;8.352;2022-11-20T07:13:47;4.10;99.90
10536;DHT22;5316;49.538;8.352;2022-11-20T07:16:15;4.20;99.90
10536;DHT22;5316;49.538;8.352;2022-11-20T07:18:43;4.20;99.90
10536;DHT22;5316;49.538;8.352;2022-11-20T07:21:10;4.20;99.90
10536;DHT22;5316;49.538;8.352;2022-11-20T07:23:37;4.20;99.90
10536;DHT22;5316;49.538;8.352;2022-11-20T07:26:04;4.20;99.90
10536;DHT22;5316;49.538;8.352;2022-11-20T07:28:31;4.30;99.90
10536;DHT22;5316;49.538;8.352;2022-11-20T07:30:58;4.30;99.90
10536;DHT22;5316;49.538;8.352;2022-11-20T07:33:25;4.30;99.90
10536;DHT22;5316;49.538;8.352;2022-11-20T07:35:53;4.40;99.90
10536;DHT22;5316;49.538;8.352;2022-11-20T07:38:20;4.40;99.90
10536;DHT22;5316;49.538;8.352;2022-11-20T07:40:47;4.40;99.90
10536;DHT22;5316;49.538;8.352;2022-11-20T07:43:14;4.40;99.90
10536;DHT22;5316;49.538;8.352;2022-11-20T07:45:41;4.40;99.90
10536;DHT22;5316;49.538;8.352;2022-11-20T07:48:07;4.40;99.90
10536;DHT22;5316;49.538;8.352;2022-11-20T07:50:34;4.50;99.90
10536;DHT22;5316;49.538;8.352;2022-11-20T07:53:03;4.40;99.90
10536;DHT22;5316;49.538;8.352;2022-11-20T07:55:31;4.40;99.90
10536;DHT22;5316;49.538;8.352;2022-11-20T07:57:58;4.40;99.90
10536;DHT22;5316;49.538;8.352;2022-11-20T08:00:25;4.50;99.90
10536;DHT22;5316;49.538;8.352;2022-11-20T08:02:52;4.40;99.90
10536;DHT22;5316;49.538;8.352;2022-11-20T08:05:19;4.50;99.90
10536;DHT22;5316;49.538;8.352;2022-11-20T08:07:46;4.40;99.90
10536;DHT22;5316;49.538;8.352;2022-11-20T08:10:15;4.50;99.90
10536;DHT22;5316;49.538;8.352;2022-11-20T08:12:45;4.50;99.90
10536;DHT22;5316;49.538;8.352;2022-11-20T08:15:30;4.60;99.90
10536;DHT22;5316;49.538;8.352;2022-11-20T08:18:02;4.60;99.90
10536;DHT22;5316;49.538;8.352;2022-11-20T08:20:29;4.70;99.90
10536;DHT22;5316;49.538;8.352;2022-11-20T08:23:00;4.70;99.90
10536;DHT22;5316;49.538;8.352;2022-11-20T08:25:29;4.70;99.90
10536;DHT22;5316;49.538;8.352;2022-11-20T08:27:57;4.70;99.90
10536;DHT22;5316;49.538;8.352;2022-11-20T08:30:24;4.70;99.90
10536;DHT22;5316;49.538;8.352;2022-11-20T08:32:51;4.70;99.90
10536;DHT22;5316;49.538;8.352;2022-11-20T08:35:18;4.70;99.90
10536;DHT22;5316;49.538;8.352;2022-11-20T08:37:46;4.60;99.90
10536;DHT22;5316;49.538;8.352;2022-11-20T08:40:13;4.60;99.90
10536;DHT22;5316;49.538;8.352;2022-11-20T08:42:47;4.70;99.90
10536;DHT22;5316;49.538;8.352;2022-11-20T08:45:14;4.60;99.90
10536;DHT22;5316;49.538;8.352;2022-11-20T08:47:41;4.70;99.90
10536;DHT22;5316;49.538;8.352;2022-11-20T08:50:09;4.70;99.90
10536;DHT22;5316;49.538;8.352;2022-11-20T08:52:36;4.70;99.90
10536;DHT22;5316;49.538;8.352;2022-11-20T08:55:04;4.70;99.90
10536;DHT22;5316;49.538;8.352;2022-11-20T08:57:31;4.80;99.90
10536;DHT22;5316;49.538;8.352;2022-11-20T08:59:59;4.70;99.90
10536;DHT22;5316;49.538;8.352;2022-11-20T09:02:26;4.90;99.90
10536;DHT22;5316;49.538;8.352;2022-11-20T09:04:53;4.90;99.90
10536;DHT22;5316;49.538;8.352;2022-11-20T09:07:20;4.90;99.90
10536;DHT22;5316;49.538;8.352;2022-11-20T09:09:47;5.00;99.90
10536;DHT22;5316;49.538;8.352;2022-11-20T09:12:14;4.90;99.90
10536;DHT22;5316;49.538;8.352;2022-11-20T09:14:41;5.00;99.90
10536;DHT22;5316;49.538;8.352;2022-11-20T09:17:09;5.00;99.90
10536;DHT22;5316;49.538;8.352;2022-11-20T09:19:38;5.00;99.90
10536;DHT22;5316;49.538;8.352;2022-11-20T09:22:06;5.00;99.90
10536;DHT22;5316;49.538;8.352;2022-11-20T09:24:33;5.10;99.90
10536;DHT22;5316;49.538;8.352;2022-11-20T09:27:02;5.10;99.90
10536;DHT22;5316;49.538;8.352;2022-11-20T09:29:29;5.10;99.90
10536;DHT22;5316;49.538;8.352;2022-11-20T09:31:56;5.10;99.90
10536;DHT22;5316;49.538;8.352;2022-11-20T09:34:24;5.20;99.90
10536;DHT22;5316;49.538;8.352;2022-11-20T09:36:51;5.20;99.90
10536;DHT22;5316;49.538;8.352;2022-11-20T09:39:26;5.20;99.90
10536;DHT22;5316;49.538;8.352;2022-11-20T09:42:08;5.20;99.90
10536;DHT22;5316;49.538;8.352;2022-11-20T09:44:52;5.20;99.90
10536;DHT22;5316;49.538;8.352;2022-11-20T09:47:32;5.20;99.90
10536;DHT22;5316;49.538;8.352;2022-11-20T09:50:16;5.30;99.90
10536;DHT22;5316;49.538;8.352;2022-11-20T09:52:49;5.30;99.90
10536;DHT22;5316;49.538;8.352;2022-11-20T09:55:21;5.30;99.90
10536;DHT22;5316;49.538;8.352;2022-11-20T09:57:50;5.40;99.90
10536;DHT22;5316;49.538;8.352;2022-11-20T10:00:18;5.40;99.90
10536;DHT22;5316;49.538;8.352;2022-11-20T10:02:52;5.50;99.90
10536;DHT22;5316;49.538;8.352;2022-11-20T10:05:25;5.50;99.90
10536;DHT22;5316;49.538;8.352;2022-11-20T10:08:05;5.50;99.90
10536;DHT22;5316;49.538;8.352;2022-11-20T10:10:40;5.50;99.90
10536;DHT22;5316;49.538;8.352;2022-11-20T10:13:24;5.50;99.90
10536;DHT22;5316;49.538;8.352;2022-11-20T10:16:01;5.50;99.90
10536;DHT22;5316;49.538;8.352;2022-11-20T10:18:44;5.50;99.90
10536;DHT22;5316;49.538;8.352;2022-11-20T10:21:23;5.50;99.90
10536;DHT22;5316;49.538;8.352;2022-11-20T10:24:01;5.50;99.90
10536;DHT22;5316;49.538;8.352;2022-11-20T10:26:35;5.50;99.90
10536;DHT22;5316;49.538;8.352;2022-11-20T10:29:10;5.60;99.90
10536;DHT22;5316;49.538;8.352;2022-11-20T10:31:40;5.60;99.90
10536;DHT22;5316;49.538;8.352;2022-11-20T10:34:15;5.70;99.90
10536;DHT22;5316;49.538;8.352;2022-11-20T10:36:49;5.70;99.90
10536;DHT22;5316;49.538;8.352;2022-11-20T10:39:22;5.80;99.90
10536;DHT22;5316;49.538;8.352;2022-11-20T10:41:52;5.80;99.90
10536;DHT22;5316;49.538;8.352;2022-11-20T10:44:20;5.90;99.90
10536;DHT22;5316;49.538;8.352;2022-11-20T10:47:02;6.00;99.90
10536;DHT22;5316;49.538;8.352;2022-11-20T10:49:31;6.10;99.90
10536;DHT22;5316;49.538;8.352;2022-11-20T10:52:07;6.20;99.90
10536;DHT22;5316;49.538;8.352;2022-11-20T10:54:41;6.30;99.90
10536;DHT22;5316;49.538;8.352;2022-11-20T10:57:20;6.40;99.90
10536;DHT22;5316;49.538;8.352;2022-11-20T10:59:59;6.50;99.90
10536;DHT22;5316;49.538;8.352;2022-11-20T11:02:33;6.50;99.90
10536;DHT22;5316;49.538;8.352;2022-11-20T11:05:08;6.60;99.90
10536;DHT22;5316;49.538;8.352;2022-11-20T11:07:39;6.60;99.90
10536;DHT22;5316;49.538;8.352;2022-11-20T11:10:15;6.70;99.90
10536;DHT22;5316;49.538;8.352;2022-11-20T11:12:44;6.80;99.90
10536;DHT22;5316;49.538;8.352;2022-11-20T11:15:14;6.90;99.90
10536;DHT22;5316;49.538;8.352;2022-11-20T11:17:46;7.00;99.90
10536;DHT22;5316;49.538;8.352;2022-11-20T11:20:18;7.20;99.90
10536;DHT22;5316;49.538;8.352;2022-11-20T11:22:48;7.30;99.90
10536;DHT22;5316;49.538;8.352;2022-11-20T11:25:27;7.40;99.90
10536;DHT22;5316;49.538;8.352;2022-11-20T11:27:56;7.60;99.90
10536;DHT22;5316;49.538;8.352;2022-11-20T11:30:24;7.70;99.90
10536;DHT22;5316;49.538;8.352;2022-11-20T11:33:03;7.70;99.90
10536;DHT22;5316;49.538;8.352;2022-11-20T11:35:30;7.70;99.90
10536;DHT22;5316;49.538;8.352;2022-11-20T11:38:04;7.70;99.90
10536;DHT22;5316;49.538;8.352;2022-11-20T11:40:34;7.70;99.90
10536;DHT22;5316;49.538;8.352;2022-11-20T11:43:05;7.70;99.90
10536;DHT22;5316;49.538;8.352;2022-11-20T11:45:53;7.70;99.90
10536;DHT22;5316;49.538;8.352;2022-11-20T11:48:20;7.70;99.90
10536;DHT22;5316;49.538;8.352;2022-11-20T11:50:49;7.70;99.90
10536;DHT22;5316;49.538;8.352;2022-11-20T11:53:19;7.70;99.90
10536;DHT22;5316;49.538;8.352;2022-11-20T11:55:51;7.60;99.90
10536;DHT22;5316;49.538;8.352;2022-11-20T11:58:34;7.60;99.90
10536;DHT22;5316;49.538;8.352;2022-11-20T12:01:04;7.60;99.90
10536;DHT22;5316;49.538;8.352;2022-11-20T12:03:36;7.60;99.90
10536;DHT22;5316;49.538;8.352;2022-11-20T12:06:08;7.60;99.90
10536;DHT22;5316;49.538;8.352;2022-11-20T12:08:42;7.60;99.90
10536;DHT22;5316;49.538;8.352;2022-11-20T12:11:15;7.70;99.90
10536;DHT22;5316;49.538;8.352;2022-11-20T12:13:48;7.70;99.90
10536;DHT22;5316;49.538;8.352;2022-11-20T12:16:19;7.80;99.90
10536;DHT22;5316;49.538;8.352;2022-11-20T12:18:48;7.80;99.90
10536;DHT22;5316;49.538;8.352;2022-11-20T12:21:20;7.90;99.90
10536;DHT22;5316;49.538;8.352;2022-11-20T12:24:05;7.90;99.90
10536;DHT22;5316;49.538;8.352;2022-11-20T12:26:46;8.00;99.90
10536;DHT22;5316;49.538;8.352;2022-11-20T12:29:21;8.00;99.90
10536;DHT22;5316;49.538;8.352;2022-11-20T12:32:18;8.00;99.90
10536;DHT22;5316;49.538;8.352;2022-11-20T12:35:17;8.10;99.90
10536;DHT22;5316;49.538;8.352;2022-11-20T12:38:07;8.10;99.90
10536;DHT22;5316;49.538;8.352;2022-11-20T12:40:41;8.20;99.90
10536;DHT22;5316;49.538;8.352;2022-11-20T12:43:17;8.20;99.90
10536;DHT22;5316;49.538;8.352;2022-11-20T12:46:14;8.20;99.90
10536;DHT22;5316;49.538;8.352;2022-11-20T12:54:41;8.30;99.90
10536;DHT22;5316;49.538;8.352;2022-11-20T12:57:18;8.30;99.90
10536;DHT22;5316;49.538;8.352;2022-11-20T13:00:06;8.40;99.90
10536;DHT22;5316;49.538;8.352;2022-11-20T13:02:41;8.30;99.90
10536;DHT22;5316;49.538;8.352;2022-11-20T13:05:19;8.30;99.90
10536;DHT22;5316;49.538;8.352;2022-11-20T13:07:48;8.30;99.90
10536;DHT22;5316;49.538;8.352;2022-11-20T13:10:20;8.30;99.90
10536;DHT22;5316;49.538;8.352;2022-11-20T13:12:55;8.30;99.90
10536;DHT22;5316;49.538;8.352;2022-11-20T13:15:36;8.30;99.90
10536;DHT22;5316;49.538;8.352;2022-11-20T13:18:09;8.40;99.90
10536;DHT22;5316;49.538;8.352;2022-11-20T13:20:41;8.40;99.90
10536;DHT22;5316;49.538;8.352;2022-11-20T13:23:08;8.50;99.90
10536;DHT22;5316;49.538;8.352;2022-11-20T13:25:36;8.60;99.90
10536;DHT22;5316;49.538;8.352;2022-11-20T13:28:28;8.70;99.90
10536;DHT22;5316;49.538;8.352;2022-11-20T13:30:57;8.80;99.90
10536;DHT22;5316;49.538;8.352;2022-11-20T13:33:28;8.80;99.90
10536;DHT22;5316;49.538;8.352;2022-11-20T13:36:02;8.90;99.90
10536;DHT22;5316;49.538;8.352;2022-11-20T13:38:48;8.90;99.90
10536;DHT22;5316;49.538;8.352;2022-11-20T13:41:24;8.90;99.90
10536;DHT22;5316;49.538;8.352;2022-11-20T13:43:58;8.90;99.90
10536;DHT22;5316;49.538;8.352;2022-11-20T13:46:39;8.90;99.90
10536;DHT22;5316;49.538;8.352;2022-11-20T13:49:15;8.90;99.90
10536;DHT22;5316;49.538;8.352;2022-11-20T13:51:44;9.00;99.90
10536;DHT22;5316;49.538;8.352;2022-11-20T13:54:44;9.00;99.90
10536;DHT22;5316;49.538;8.352;2022-11-20T13:57:41;9.00;99.90
10536;DHT22;5316;49.538;8.352;2022-11-20T14:00:13;9.00;99.90
10536;DHT22;5316;49.538;8.352;2022-11-20T14:02:41;9.00;99.90
10536;DHT22;5316;49.538;8.352;2022-11-20T14:05:17;9.10;99.90
10536;DHT22;5316;49.538;8.352;2022-11-20T14:07:45;9.10;99.90
10536;DHT22;5316;49.538;8.352;2022-11-20T14:10:20;9.10;99.90
10536;DHT22;5316;49.538;8.352;2022-11-20T14:12:47;9.10;99.90
10536;DHT22;5316;49.538;8.352;2022-11-20T14:15:25;9.10;99.90
10536;DHT22;5316;49.538;8.352;2022-11-20T14:17:52;9.10;99.90
10536;DHT22;5316;49.538;8.352;2022-11-20T14:20:20;9.10;99.90
10536;DHT22;5316;49.538;8.352;2022-11-20T14:22:49;9.00;99.90
10536;DHT22;5316;49.538;8.352;2022-11-20T14:25:20;9.00;99.90
10536;DHT22;5316;49.538;8.352;2022-11-20T14:27:51;9.00;99.90
10536;DHT22;5316;49.538;8.352;2022-11-20T14:30:21;8.90;99.90
10536;DHT22;5316;49.538;8.352;2022-11-20T14:32:52;8.90;99.90
10536;DHT22;5316;49.538;8.352;2022-11-20T14:35:24;8.90;99.90
10536;DHT22;5316;49.538;8.352;2022-11-20T14:37:51;8.90;99.90
10536;DHT22;5316;49.538;8.352;2022-11-20T14:40:24;8.90;99.90
10536;DHT22;5316;49.538;8.352;2022-11-20T14:42:51;8.90;99.90
10536;DHT22;5316;49.538;8.352;2022-11-20T14:45:18;8.90;99.90
10536;DHT22;5316;49.538;8.352;2022-11-20T14:47:46;8.80;99.90
10536;DHT22;5316;49.538;8.352;2022-11-20T14:50:18;8.80;99.90
10536;DHT22;5316;49.538;8.352;2022-11-20T14:52:52;8.70;99.90
10536;DHT22;5316;49.538;8.352;2022-11-20T14:55:28;8.70;99.90
10536;DHT22;5316;49.538;8.352;2022-11-20T14:57:57;8.60;99.90
10536;DHT22;5316;49.538;8.352;2022-11-20T15:00:27;8.60;99.90
10536;DHT22;5316;49.538;8.352;2022-11-20T15:02:54;8.50;99.90
10536;DHT22;5316;49.538;8.352;2022-11-20T15:05:24;8.60;99.90
10536;DHT22;5316;49.538;8.352;2022-11-20T15:08:03;8.50;99.90
10536;DHT22;5316;49.538;8.352;2022-11-20T15:10:31;8.50;99.90
10536;DHT22;5316;49.538;8.352;2022-11-20T15:13:01;8.40;99.90
10536;DHT22;5316;49.538;8.352;2022-11-20T15:15:30;8.40;99.90
10536;DHT22;5316;49.538;8.352;2022-11-20T15:17:59;8.30;99.90
10536;DHT22;5316;49.538;8.352;2022-11-20T15:20:30;8.30;99.90
10536;DHT22;5316;49.538;8.352;2022-11-20T15:22:57;8.20;99.90
10536;DHT22;5316;49.538;8.352;2022-11-20T15:25:24;8.20;99.90
10536;DHT22;5316;49.538;8.352;2022-11-20T15:27:54;8.20;99.90
10536;DHT22;5316;49.538;8.352;2022-11-20T15:30:22;8.20;99.90
10536;DHT22;5316;49.538;8.352;2022-11-20T15:32:49;8.10;99.90
10536;DHT22;5316;49.538;8.352;2022-11-20T15:35:16;8.10;99.90
10536;DHT22;5316;49.538;8.352;2022-11-20T15:37:44;8.10;99.90
10536;DHT22;5316;49.538;8.352;2022-11-20T15:40:11;8.10;99.90
10536;DHT22;5316;49.538;8.352;2022-11-20T15:42:38;8.00;99.90
10536;DHT22;5316;49.538;8.352;2022-11-20T15:45:27;8.00;99.90
10536;DHT22;5316;49.538;8.352;2022-11-20T15:47:55;8.00;99.90
10536;DHT22;5316;49.538;8.352;2022-11-20T15:50:22;8.00;99.90
10536;DHT22;5316;49.538;8.352;2022-11-20T15:52:51;7.90;99.90
10536;DHT22;5316;49.538;8.352;2022-11-20T15:55:18;8.00;99.90
10536;DHT22;5316;49.538;8.352;2022-11-20T15:57:45;8.00;99.90
10536;DHT22;5316;49.538;8.352;2022-11-20T16:00:12;7.90;99.90
10536;DHT22;5316;49.538;8.352;2022-11-20T16:02:39;7.90;99.90
10536;DHT22;5316;49.538;8.352;2022-11-20T16:05:10;7.90;99.90
10536;DHT22;5316;49.538;8.352;2022-11-20T16:07:37;7.90;99.90
10536;DHT22;5316;49.538;8.352;2022-11-20T16:10:06;8.00;99.90
10536;DHT22;5316;49.538;8.352;2022-11-20T16:12:33;7.90;99.90
10536;DHT22;5316;49.538;8.352;2022-11-20T16:15:17;7.90;99.90
10536;DHT22;5316;49.538;8.352;2022-11-20T16:18:01;7.90;99.90
10536;DHT22;5316;49.538;8.352;2022-11-20T16:20:28;7.80;99.90
10536;DHT22;5316;49.538;8.352;2022-11-20T16:22:56;7.80;99.90
10536;DHT22;5316;49.538;8.352;2022-11-20T16:25:24;7.80;99.90
10536;DHT22;5316;49.538;8.352;2022-11-20T16:27:51;7.80;99.90